createdAt,value
2022-08-23T00:01:27.943Z,5.57
2022-08-23T00:04:02.399Z,4.83
2022-08-23T00:06:33.823Z,6.03
2022-08-23T00:09:01.927Z,5.13
2022-08-23T00:11:34.598Z,5.30
2022-08-23T00:14:04.573Z,5.23
2022-08-23T00:16:34.244Z,5.63
2022-08-23T00:19:02.708Z,6.03
2022-08-23T00:21:30.885Z,6.23
2022-08-23T00:23:59.377Z,5.80
2022-08-23T00:26:30.244Z,6.30
2022-08-23T00:28:59.852Z,5.70
2022-08-23T00:31:32.023Z,5.67
2022-08-23T00:34:01.164Z,5.87
2022-08-23T00:36:32.599Z,6.30
2022-08-23T00:39:02.510Z,6.07
2022-08-23T00:41:30.646Z,5.73
2022-08-23T00:44:17.788Z,5.60
2022-08-23T00:47:20.563Z,5.90
2022-08-23T00:49:52.057Z,5.93
2022-08-23T00:52:29.410Z,5.57
2022-08-23T00:54:58.101Z,5.80
2022-08-23T00:57:26.401Z,5.60
2022-08-23T00:59:57.884Z,5.70
2022-08-23T01:02:26.100Z,5.63
2022-08-23T01:04:59.457Z,5.00
2022-08-23T01:07:33.709Z,5.70
2022-08-23T01:10:04.571Z,6.13
2022-08-23T01:12:39.970Z,5.23
2022-08-23T01:15:12.456Z,5.63
2022-08-23T01:17:42.054Z,5.47
2022-08-23T01:20:12.255Z,6.47
2022-08-23T01:22:46.983Z,5.53
2022-08-23T01:25:18.344Z,5.53
2022-08-23T01:27:47.798Z,6.33
2022-08-23T01:30:18.795Z,6.63
2022-08-23T01:32:52.867Z,6.40
2022-08-23T01:37:50.477Z,7.33
2022-08-23T01:40:20.909Z,7.27
2022-08-23T01:42:50.096Z,7.93
2022-08-23T01:45:18.868Z,7.77
2022-08-23T01:47:47.693Z,7.67
2022-08-23T01:50:15.973Z,7.47
2022-08-23T01:52:46.667Z,8.17
2022-08-23T01:55:16.531Z,7.80
2022-08-23T01:57:47.773Z,8.73
2022-08-23T02:00:17.846Z,7.80
2022-08-23T02:02:47.183Z,8.30
2022-08-23T02:05:17.480Z,7.23
2022-08-23T02:07:47.262Z,7.60
2022-08-23T02:10:25.573Z,7.97
2022-08-23T02:12:58.284Z,7.50
2022-08-23T02:15:26.447Z,7.93
2022-08-23T02:17:54.977Z,7.93
2022-08-23T02:20:23.744Z,7.97
2022-08-23T02:22:51.993Z,7.87
2022-08-23T02:25:21.237Z,7.90
2022-08-23T02:27:49.473Z,8.03
2022-08-23T02:30:19.555Z,7.23
2022-08-23T02:32:47.749Z,7.87
2022-08-23T02:35:19.539Z,7.73
2022-08-23T02:37:47.726Z,8.20
2022-08-23T02:40:15.931Z,7.07
2022-08-23T02:42:44.104Z,7.83
2022-08-23T02:45:13.136Z,8.00
2022-08-23T02:47:51.226Z,7.73
2022-08-23T02:50:19.803Z,7.97
2022-08-23T02:52:50.687Z,8.23
2022-08-23T02:55:18.990Z,7.93
2022-08-23T02:57:47.200Z,7.70
2022-08-23T03:00:16.489Z,7.97
2022-08-23T03:02:46.449Z,8.10
2022-08-23T03:05:14.997Z,7.77
2022-08-23T03:07:43.192Z,7.43
2022-08-23T03:10:12.073Z,7.33
2022-08-23T03:12:40.380Z,8.07
2022-08-23T03:15:09.551Z,7.87
2022-08-23T03:17:37.720Z,7.23
2022-08-23T03:20:08.864Z,7.60
2022-08-23T03:22:37.519Z,8.10
2022-08-23T03:25:06.917Z,8.00
2022-08-23T03:27:38.446Z,8.23
2022-08-23T03:30:19.987Z,8.33
2022-08-23T03:32:49.709Z,8.23
2022-08-23T03:35:24.460Z,8.50
2022-08-23T03:37:55.321Z,7.23
2022-08-23T03:40:24.143Z,7.77
2022-08-23T03:42:53.527Z,7.67
2022-08-23T03:45:22.081Z,8.70
2022-08-23T03:47:50.743Z,9.00
2022-08-23T03:50:22.236Z,8.30
2022-08-23T03:52:50.354Z,8.30
2022-08-23T03:55:22.586Z,8.57
2022-08-23T03:57:50.876Z,9.10
2022-08-23T04:00:20.286Z,9.00
2022-08-23T04:02:48.911Z,8.40
2022-08-23T04:05:17.258Z,8.80
2022-08-23T04:07:46.906Z,8.77
2022-08-23T04:10:15.784Z,9.17
2022-08-23T04:12:47.078Z,8.87
2022-08-23T04:15:15.222Z,8.90
2022-08-23T04:17:47.851Z,9.23
2022-08-23T04:20:25.212Z,9.37
2022-08-23T04:22:57.375Z,8.93
2022-08-23T04:25:33.616Z,9.23
2022-08-23T04:28:07.705Z,9.20
2022-08-23T04:30:36.916Z,9.40
2022-08-23T04:33:09.948Z,10.73
2022-08-23T04:35:39.616Z,9.93
2022-08-23T04:38:24.314Z,9.90
2022-08-23T04:41:17.084Z,9.83
2022-08-23T04:43:50.692Z,9.90
2022-08-23T04:46:18.893Z,10.70
2022-08-23T04:48:47.245Z,10.60
2022-08-23T04:51:15.761Z,10.10
2022-08-23T04:53:47.037Z,10.67
2022-08-23T04:56:15.859Z,10.27
2022-08-23T04:58:46.454Z,9.70
2022-08-23T05:01:16.235Z,10.30
2022-08-23T05:03:52.174Z,9.97
2022-08-23T05:06:20.694Z,10.10
2022-08-23T05:08:50.484Z,9.40
2022-08-23T05:11:20.613Z,10.00
2022-08-23T05:13:53.091Z,10.17
2022-08-23T05:16:26.702Z,10.77
2022-08-23T05:18:54.883Z,9.83
2022-08-23T05:21:24.247Z,10.47
2022-08-23T05:24:03.887Z,11.17
2022-08-23T05:26:35.390Z,10.60
2022-08-23T05:29:15.515Z,10.53
2022-08-23T05:31:46.863Z,11.07
2022-08-23T05:34:22.631Z,12.10
2022-08-23T05:36:55.673Z,10.40
2022-08-23T05:39:37.632Z,11.47
2022-08-23T05:42:12.202Z,10.30
2022-08-23T05:44:41.162Z,10.40
2022-08-23T05:47:15.489Z,10.97
2022-08-23T05:49:44.346Z,11.77
2022-08-23T05:52:15.734Z,11.67
2022-08-23T05:54:45.291Z,12.10
2022-08-23T05:57:16.149Z,12.30
2022-08-23T05:59:52.118Z,11.47
2022-08-23T06:02:27.929Z,11.13
2022-08-23T06:05:00.933Z,11.63
2022-08-23T06:07:40.194Z,11.33
2022-08-23T06:10:16.310Z,10.27
2022-08-23T06:12:44.693Z,11.90
2022-08-23T06:15:12.976Z,10.90
2022-08-23T06:17:51.965Z,11.07
2022-08-23T06:20:26.960Z,11.27
2022-08-23T06:23:02.418Z,11.80
2022-08-23T06:25:39.057Z,11.73
2022-08-23T06:28:12.417Z,11.30
2022-08-23T06:31:06.232Z,11.13
2022-08-23T06:33:37.988Z,11.50
2022-08-23T06:36:13.198Z,10.70
2022-08-23T06:38:52.565Z,11.33
2022-08-23T06:41:22.335Z,10.47
2022-08-23T06:43:51.083Z,10.70
2022-08-23T06:46:23.556Z,10.63
2022-08-23T06:49:06.899Z,10.63
2022-08-23T06:51:43.042Z,10.23
2022-08-23T06:54:12.607Z,10.67
2022-08-23T06:56:51.126Z,10.13
2022-08-23T06:59:19.957Z,11.30
2022-08-23T07:01:55.152Z,10.63
2022-08-23T07:04:30.404Z,9.83
2022-08-23T07:07:01.967Z,9.40
2022-08-23T07:09:34.585Z,9.77
2022-08-23T07:12:04.780Z,9.80
2022-08-23T07:14:35.456Z,9.87
2022-08-23T07:17:09.721Z,9.20
2022-08-23T07:19:45.353Z,9.33
2022-08-23T07:22:15.661Z,9.40
2022-08-23T07:24:49.760Z,9.80
2022-08-23T07:27:26.875Z,9.10
2022-08-23T07:30:01.469Z,9.87
2022-08-23T07:32:32.585Z,9.77
2022-08-23T07:35:00.719Z,9.83
2022-08-23T07:37:31.046Z,10.60
2022-08-23T07:39:59.451Z,9.27
2022-08-23T07:42:35.745Z,9.60
2022-08-23T07:45:12.965Z,8.93
2022-08-23T07:47:50.086Z,8.27
2022-08-23T07:50:21.341Z,8.00
2022-08-23T07:52:50.107Z,7.60
2022-08-23T07:55:18.450Z,7.43
2022-08-23T07:57:55.191Z,5.83
2022-08-23T08:00:27.673Z,5.53
2022-08-23T08:02:55.819Z,4.80
2022-08-23T08:05:23.984Z,5.20
2022-08-23T08:07:57.611Z,4.73
2022-08-23T08:10:30.295Z,5.00
2022-08-23T08:12:59.909Z,3.83
2022-08-23T08:15:28.076Z,4.23
2022-08-23T08:17:57.441Z,3.33
2022-08-23T08:20:30.233Z,4.30
2022-08-23T08:23:00.577Z,3.87
2022-08-23T08:25:34.234Z,4.50
2022-08-23T08:28:05.317Z,4.70
2022-08-23T08:30:34.377Z,4.20
2022-08-23T08:33:07.099Z,3.37
2022-08-23T08:35:35.258Z,3.70
2022-08-23T08:38:08.084Z,3.73
2022-08-23T08:40:44.126Z,3.37
2022-08-23T08:43:20.862Z,3.43
2022-08-23T08:45:58.977Z,3.50
2022-08-23T08:48:29.732Z,2.63
2022-08-23T08:50:58.830Z,2.60
2022-08-23T08:53:29.917Z,3.00
2022-08-23T08:56:06.314Z,2.80
2022-08-23T08:58:42.560Z,3.80
2022-08-23T09:01:14.955Z,3.77
2022-08-23T09:03:43.163Z,3.30
2022-08-23T09:06:23.695Z,3.17
2022-08-23T09:09:02.194Z,2.97
2022-08-23T09:11:36.875Z,2.90
2022-08-23T09:14:18.462Z,2.72
2022-08-23T09:16:52.115Z,2.78
2022-08-23T09:19:28.273Z,2.92
2022-08-23T09:22:01.649Z,2.88
2022-08-23T09:24:29.897Z,2.80
2022-08-23T09:27:05.513Z,2.80
2022-08-23T09:29:35.948Z,4.43
2022-08-23T09:32:14.286Z,3.92
2022-08-23T09:34:46.480Z,4.00
2022-08-23T09:37:19.566Z,3.97
2022-08-23T09:39:49.720Z,3.92
2022-08-23T09:42:28.824Z,4.20
2022-08-23T09:44:58.201Z,4.40
2022-08-23T09:47:33.380Z,3.92
2022-08-23T09:50:09.202Z,4.18
2022-08-23T09:52:42.454Z,4.07
2022-08-23T09:55:27.990Z,4.20
2022-08-23T09:57:56.232Z,3.67
2022-08-23T10:00:27.973Z,4.18
2022-08-23T10:03:02.677Z,3.28
2022-08-23T10:05:39.355Z,3.10
2022-08-23T10:08:10.474Z,2.95
2022-08-23T10:10:50.945Z,3.38
2022-08-23T10:13:20.885Z,3.50
2022-08-23T10:15:57.505Z,3.28
2022-08-23T10:18:35.000Z,3.53
2022-08-23T10:21:09.971Z,3.70
2022-08-23T10:24:02.600Z,3.50
2022-08-23T10:26:32.933Z,4.13
2022-08-23T10:29:24.821Z,3.40
2022-08-23T10:31:59.406Z,4.07
2022-08-23T10:34:52.169Z,4.35
2022-08-23T10:37:30.365Z,4.70
2022-08-23T10:40:04.389Z,3.63
2022-08-23T10:42:37.849Z,2.47
2022-08-23T10:45:11.466Z,2.58
2022-08-23T10:47:49.870Z,2.15
2022-08-23T10:50:20.130Z,2.40
2022-08-23T10:53:01.687Z,2.15
2022-08-23T10:55:54.697Z,2.50
2022-08-23T10:58:25.240Z,2.38
2022-08-23T11:00:53.727Z,2.40
2022-08-23T11:03:29.091Z,2.55
2022-08-23T11:06:42.122Z,3.08
2022-08-23T11:09:11.330Z,2.92
2022-08-23T11:11:45.488Z,2.80
2022-08-23T11:14:26.557Z,3.10
2022-08-23T11:17:00.552Z,3.42
2022-08-23T11:19:50.521Z,2.75
2022-08-23T11:22:19.325Z,2.92
2022-08-23T11:24:55.856Z,2.58
2022-08-23T11:27:32.378Z,2.90
2022-08-23T11:30:34.535Z,3.00
2022-08-23T11:33:09.786Z,3.15
2022-08-23T11:35:43.019Z,3.03
2022-08-23T11:38:11.881Z,3.08
2022-08-23T11:40:59.975Z,3.97
2022-08-23T11:43:38.018Z,3.47
2022-08-23T11:46:30.530Z,3.38
2022-08-23T11:49:16.184Z,2.90
2022-08-23T11:51:48.460Z,3.88
2022-08-23T11:54:39.601Z,3.15
2022-08-23T11:57:20.605Z,3.00
2022-08-23T12:00:28.722Z,2.45
2022-08-23T12:03:03.195Z,3.38
2022-08-23T12:06:12.634Z,3.67
2022-08-23T12:09:04.242Z,3.30
2022-08-23T12:12:06.653Z,2.80
2022-08-23T12:14:49.833Z,3.38
2022-08-23T12:17:57.137Z,3.03
2022-08-23T12:20:49.625Z,2.58
2022-08-23T12:23:20.484Z,2.50
2022-08-23T12:25:59.915Z,2.47
2022-08-23T12:28:39.675Z,2.40
2022-08-23T12:31:14.926Z,2.00
2022-08-23T12:33:48.637Z,1.90
2022-08-23T12:36:21.204Z,1.70
2022-08-23T12:38:57.127Z,2.00
2022-08-23T12:41:29.653Z,1.67
2022-08-23T12:44:03.228Z,1.58
2022-08-23T12:46:38.116Z,1.80
2022-08-23T12:49:13.263Z,2.08
2022-08-23T12:51:50.274Z,1.88
2022-08-23T12:54:19.941Z,1.50
2022-08-23T12:56:51.813Z,1.80
2022-08-23T12:59:32.175Z,1.83
2022-08-23T13:02:01.967Z,2.10
2022-08-23T13:04:32.094Z,1.90
2022-08-23T13:07:05.496Z,1.90
2022-08-23T13:09:35.024Z,2.60
2022-08-23T13:12:06.860Z,2.25
2022-08-23T13:14:43.151Z,2.20
2022-08-23T13:17:17.286Z,1.92
2022-08-23T13:19:45.766Z,2.00
2022-08-23T13:22:22.253Z,1.90
2022-08-23T13:25:28.648Z,1.90
2022-08-23T13:28:09.199Z,2.42
2022-08-23T13:30:38.793Z,2.33
2022-08-23T13:33:21.369Z,1.85
2022-08-23T13:35:50.092Z,1.92
2022-08-23T13:38:27.464Z,1.90
2022-08-23T13:41:04.263Z,1.92
2022-08-23T13:43:37.757Z,2.25
2022-08-23T13:46:14.288Z,2.45
2022-08-23T13:48:47.165Z,2.28
2022-08-23T13:51:27.365Z,1.92
2022-08-23T13:53:55.857Z,2.17
2022-08-23T13:56:23.970Z,2.13
2022-08-23T13:59:00.564Z,2.17
2022-08-23T14:01:30.774Z,1.80
2022-08-23T14:03:59.080Z,1.98
2022-08-23T14:06:37.983Z,2.30
2022-08-23T14:09:07.515Z,2.00
2022-08-23T14:11:43.821Z,2.28
2022-08-23T14:14:13.382Z,2.47
2022-08-23T14:16:53.529Z,2.75
2022-08-23T14:22:10.021Z,3.08
2022-08-23T14:24:38.646Z,3.22
2022-08-23T14:27:13.236Z,3.05
2022-08-23T14:29:42.753Z,3.50
2022-08-23T14:32:11.250Z,4.28
2022-08-23T14:34:44.784Z,4.25
2022-08-23T14:38:13.393Z,4.70
2022-08-23T14:40:05.615Z,4.72
2022-08-23T14:42:34.080Z,3.97
2022-08-23T14:45:13.463Z,4.82
2022-08-23T14:47:41.654Z,3.83
2022-08-23T14:50:13.322Z,4.25
2022-08-23T14:52:46.731Z,5.18
2022-08-23T14:55:15.175Z,4.40
2022-08-23T14:57:43.435Z,3.63
2022-08-23T15:00:20.200Z,4.07
2022-08-23T15:02:50.204Z,5.15
2022-08-23T15:05:18.758Z,3.83
2022-08-23T15:07:47.576Z,4.20
2022-08-23T15:13:21.740Z,3.95
2022-08-23T15:15:57.223Z,3.85
2022-08-23T15:18:32.318Z,4.35
2022-08-23T15:21:05.087Z,4.65
2022-08-23T15:23:33.751Z,3.88
2022-08-23T15:26:12.374Z,3.85
2022-08-23T15:28:43.594Z,3.65
2022-08-23T15:31:13.481Z,3.33
2022-08-23T15:33:41.621Z,3.90
2022-08-23T15:36:18.156Z,3.60
2022-08-23T15:38:53.921Z,4.30
2022-08-23T15:41:22.121Z,4.05
2022-08-23T15:43:50.312Z,4.20
2022-08-23T15:46:21.442Z,4.20
2022-08-23T15:48:53.920Z,3.78
2022-08-23T15:51:22.268Z,4.00
2022-08-23T15:53:50.421Z,3.75
2022-08-23T15:56:22.638Z,3.90
2022-08-23T15:59:00.764Z,3.85
2022-08-23T16:01:33.874Z,4.25
2022-08-23T16:04:02.444Z,4.53
2022-08-23T16:06:35.913Z,4.30
2022-08-23T16:09:24.207Z,3.80
2022-08-23T16:12:00.276Z,4.00
2022-08-23T16:17:18.324Z,3.78
2022-08-23T16:19:46.791Z,4.47
2022-08-23T16:22:15.549Z,4.53
2022-08-23T16:24:44.022Z,3.60
2022-08-23T16:27:20.760Z,4.07
2022-08-23T16:29:49.122Z,3.60
2022-08-23T16:32:18.846Z,3.83
2022-08-23T16:34:53.402Z,4.00
2022-08-23T16:37:23.676Z,3.53
2022-08-23T16:39:52.280Z,3.88
2022-08-23T16:42:22.312Z,3.97
2022-08-23T16:44:51.122Z,3.60
2022-08-23T16:47:21.531Z,4.13
2022-08-23T16:49:49.912Z,4.18
2022-08-23T16:52:18.642Z,3.95
2022-08-23T16:54:48.911Z,3.50
2022-08-23T16:57:17.965Z,3.55
2022-08-23T16:59:48.034Z,4.15
2022-08-23T17:02:30.271Z,3.40
2022-08-23T17:04:59.485Z,3.58
2022-08-23T17:07:28.802Z,4.00
2022-08-23T17:09:57.687Z,4.22
2022-08-23T17:12:26.361Z,4.40
2022-08-23T17:14:57.140Z,3.90
2022-08-23T17:17:28.461Z,3.28
2022-08-23T17:19:57.444Z,3.20
2022-08-23T17:22:26.158Z,3.42
2022-08-23T17:24:54.537Z,3.83
2022-08-23T17:27:24.819Z,3.50
2022-08-23T17:29:59.289Z,3.50
2022-08-23T17:32:29.441Z,2.75
2022-08-23T17:35:00.098Z,2.70
2022-08-23T17:37:30.237Z,2.78
2022-08-23T17:40:00.738Z,3.10
2022-08-23T17:42:28.920Z,2.60
2022-08-23T17:45:01.216Z,2.88
2022-08-23T17:47:33.903Z,2.38
2022-08-23T17:50:03.521Z,2.50
2022-08-23T17:52:32.670Z,2.60
2022-08-23T17:55:01.485Z,2.58
2022-08-23T17:57:32.294Z,2.60
2022-08-23T18:00:02.195Z,2.80
2022-08-23T18:02:30.659Z,2.30
2022-08-23T18:05:01.059Z,2.33
2022-08-23T18:07:30.885Z,2.42
2022-08-23T18:09:59.780Z,2.77
2022-08-23T18:12:34.027Z,2.50
2022-08-23T18:15:15.772Z,2.50
2022-08-23T18:17:58.369Z,2.13
2022-08-23T18:20:38.350Z,2.73
2022-08-23T18:23:11.695Z,2.10
2022-08-23T18:25:41.618Z,2.20
2022-08-23T18:28:10.033Z,2.37
2022-08-23T18:30:39.895Z,1.97
2022-08-23T18:33:12.406Z,2.03
2022-08-23T18:35:44.961Z,2.30
2022-08-23T18:38:13.713Z,2.50
2022-08-23T18:40:46.518Z,2.47
2022-08-23T18:43:18.032Z,2.70
2022-08-23T18:45:48.336Z,2.67
2022-08-23T18:48:17.117Z,2.43
2022-08-23T18:50:49.388Z,2.37
2022-08-23T18:53:24.696Z,2.53
2022-08-23T18:55:58.058Z,3.00
2022-08-23T18:58:27.550Z,2.77
2022-08-23T19:00:57.415Z,2.43
2022-08-23T19:03:26.336Z,2.43
2022-08-23T19:05:56.717Z,2.90
2022-08-23T19:08:24.973Z,3.10
2022-08-23T19:10:58.257Z,2.87
2022-08-23T19:13:27.261Z,3.20
2022-08-23T19:15:57.201Z,2.90
2022-08-23T19:18:26.800Z,2.83
2022-08-23T19:20:57.319Z,3.30
2022-08-23T19:23:25.468Z,2.80
2022-08-23T19:25:53.926Z,2.50
2022-08-23T19:28:54.413Z,2.80
2022-08-23T19:31:25.575Z,3.07
2022-08-23T19:34:03.093Z,2.63
2022-08-23T19:36:46.207Z,2.57
2022-08-23T19:39:33.009Z,2.50
2022-08-23T19:42:07.422Z,3.10
2022-08-23T19:44:39.406Z,2.97
2022-08-23T19:47:20.252Z,2.87
2022-08-23T19:50:08.133Z,3.10
2022-08-23T19:52:41.326Z,2.97
2022-08-23T19:55:13.632Z,2.80
2022-08-23T19:57:43.824Z,2.70
2022-08-23T20:00:43.037Z,2.97
2022-08-23T20:03:20.163Z,3.07
2022-08-23T20:05:54.092Z,3.00
2022-08-23T20:08:28.221Z,2.87
2022-08-23T20:11:01.618Z,3.67
2022-08-23T20:13:31.563Z,3.93
2022-08-23T20:16:01.061Z,3.43
2022-08-23T20:18:29.419Z,3.73
2022-08-23T20:20:57.777Z,4.07
2022-08-23T20:23:48.381Z,3.40
2022-08-23T20:26:17.180Z,3.73
2022-08-23T20:28:59.113Z,4.20
2022-08-23T20:31:29.796Z,3.70
2022-08-23T20:34:07.512Z,4.30
2022-08-23T20:36:40.289Z,3.80
2022-08-23T20:39:10.087Z,3.60
2022-08-23T20:41:39.281Z,2.93
2022-08-23T20:44:10.423Z,3.33
2022-08-23T20:46:38.766Z,3.20
2022-08-23T20:49:07.039Z,3.00
2022-08-23T20:51:36.709Z,2.90
2022-08-23T20:54:05.483Z,3.07
2022-08-23T20:56:37.055Z,3.53
2022-08-23T20:59:05.502Z,3.90
2022-08-23T21:01:36.765Z,3.80
2022-08-23T21:04:08.479Z,4.00
2022-08-23T21:06:45.285Z,3.67
2022-08-23T21:09:20.421Z,4.03
2022-08-23T21:11:53.378Z,4.53
2022-08-23T21:14:22.575Z,4.13
2022-08-23T21:16:53.785Z,4.20
2022-08-23T21:19:22.258Z,4.73
2022-08-23T21:21:51.017Z,5.07
2022-08-23T21:24:20.003Z,4.90
2022-08-23T21:26:48.463Z,5.03
2022-08-23T21:29:19.345Z,4.83
2022-08-23T21:31:48.176Z,3.90
2022-08-23T21:34:17.590Z,4.90
2022-08-23T21:36:45.782Z,5.53
2022-08-23T21:39:42.876Z,6.70
2022-08-23T21:42:23.892Z,5.57
2022-08-23T21:45:19.067Z,6.43
2022-08-23T21:47:53.787Z,8.17
2022-08-23T21:50:29.479Z,9.07
2022-08-23T21:52:57.755Z,10.10
2022-08-23T21:55:35.960Z,9.00
2022-08-23T21:58:10.163Z,8.90
2022-08-23T22:00:43.318Z,9.70
2022-08-23T22:03:24.587Z,9.93
2022-08-23T22:05:54.511Z,9.57
2022-08-23T22:08:23.608Z,9.90
2022-08-23T22:10:57.309Z,9.93
2022-08-23T22:13:29.453Z,10.60
2022-08-23T22:16:00.707Z,11.27
2022-08-23T22:18:33.232Z,10.37
2022-08-23T22:21:02.298Z,10.40
2022-08-23T22:23:36.715Z,11.27
2022-08-23T22:26:07.548Z,11.40
2022-08-23T22:28:37.340Z,11.20
2022-08-23T22:31:08.666Z,11.03
2022-08-23T22:33:37.403Z,10.80
2022-08-23T22:36:14.989Z,10.90
2022-08-23T22:38:44.638Z,11.30
2022-08-23T22:41:16.870Z,11.23
2022-08-23T22:43:46.571Z,11.60
2022-08-23T22:46:19.755Z,11.73
2022-08-23T22:48:50.315Z,11.03
2022-08-23T22:51:20.000Z,12.10
2022-08-23T22:53:50.664Z,12.00
2022-08-23T22:56:22.409Z,11.57
2022-08-23T22:58:54.106Z,12.10
2022-08-23T23:01:28.328Z,11.73
2022-08-23T23:03:58.341Z,11.83
2022-08-23T23:06:27.375Z,12.23
2022-08-23T23:08:59.287Z,11.03
2022-08-23T23:11:28.451Z,11.50
2022-08-23T23:13:57.054Z,11.20
2022-08-23T23:16:28.277Z,11.77
2022-08-23T23:19:14.605Z,11.20
2022-08-23T23:21:45.073Z,11.97
2022-08-23T23:24:19.867Z,13.13
2022-08-23T23:26:50.107Z,12.50
2022-08-23T23:29:20.918Z,12.33
2022-08-23T23:31:51.720Z,12.37
2022-08-23T23:34:21.293Z,11.00
2022-08-23T23:36:50.208Z,11.87
2022-08-23T23:39:19.677Z,13.40
2022-08-23T23:41:49.135Z,12.17
2022-08-23T23:44:28.342Z,12.53
2022-08-23T23:47:03.911Z,12.77
2022-08-23T23:49:33.802Z,11.80
2022-08-23T23:52:03.857Z,12.77
2022-08-23T23:54:36.488Z,11.57
2022-08-23T23:57:04.867Z,12.17
2022-08-23T23:59:33.201Z,11.87
